createdAt,value
2024-05-09T00:00:56.312Z,100.00
2024-05-09T00:03:25.672Z,100.00
2024-05-09T00:05:55.135Z,100.00
2024-05-09T00:08:24.727Z,100.00
2024-05-09T00:10:56.852Z,100.00
2024-05-09T00:13:26.391Z,100.00
2024-05-09T00:15:55.787Z,100.00
2024-05-09T00:18:25.367Z,100.00
2024-05-09T00:20:54.899Z,100.00
2024-05-09T00:23:24.314Z,100.00
2024-05-09T00:25:56.334Z,100.00
2024-05-09T00:28:26.105Z,100.00
2024-05-09T00:30:55.663Z,100.00
2024-05-09T00:33:25.208Z,100.00
2024-05-09T00:35:55.050Z,100.00
2024-05-09T00:38:24.458Z,100.00
2024-05-09T00:40:56.509Z,100.00
2024-05-09T00:43:25.901Z,100.00
2024-05-09T00:45:56.854Z,100.00
2024-05-09T00:48:26.735Z,100.00
2024-05-09T00:50:57.654Z,100.00
2024-05-09T00:53:27.602Z,100.00
2024-05-09T00:56:00.312Z,100.00
2024-05-09T00:58:31.664Z,100.00
2024-05-09T01:01:02.416Z,100.00
2024-05-09T01:03:31.962Z,100.00
2024-05-09T01:06:01.476Z,100.00
2024-05-09T01:08:31.142Z,100.00
2024-05-09T01:11:03.308Z,100.00
2024-05-09T01:13:32.704Z,100.00
2024-05-09T01:16:02.555Z,100.00
2024-05-09T01:18:32.217Z,100.00
2024-05-09T01:21:01.747Z,100.00
2024-05-09T01:23:33.920Z,100.00
2024-05-09T01:26:03.405Z,100.00
2024-05-09T01:28:32.753Z,100.00
2024-05-09T01:31:02.135Z,100.00
2024-05-09T01:33:31.677Z,100.00
2024-05-09T01:36:01.809Z,100.00
2024-05-09T01:38:33.836Z,100.00
2024-05-09T01:41:03.330Z,100.00
2024-05-09T01:43:32.820Z,100.00
2024-05-09T01:46:02.338Z,100.00
2024-05-09T01:48:31.846Z,100.00
2024-05-09T01:51:01.381Z,100.00
2024-05-09T01:53:31.082Z,100.00
2024-05-09T01:56:03.227Z,100.00
2024-05-09T01:58:33.138Z,100.00
2024-05-09T02:01:02.579Z,100.00
2024-05-09T02:03:32.089Z,100.00
2024-05-09T02:06:01.845Z,100.00
2024-05-09T02:08:31.531Z,100.00
2024-05-09T02:11:03.869Z,100.00
2024-05-09T02:13:33.331Z,100.00
2024-05-09T02:16:02.716Z,100.00
2024-05-09T02:18:32.153Z,100.00
2024-05-09T02:21:01.687Z,100.00
2024-05-09T02:23:31.360Z,100.00
2024-05-09T02:26:03.434Z,100.00
2024-05-09T02:28:32.784Z,100.00
2024-05-09T02:31:02.124Z,100.00
2024-05-09T02:33:31.731Z,100.00
2024-05-09T02:36:01.362Z,100.00
2024-05-09T02:38:28.170Z,100.00
2024-05-09T02:40:57.901Z,100.00
2024-05-09T02:43:27.532Z,100.00
2024-05-09T02:45:56.890Z,100.00
2024-05-09T02:48:24.082Z,100.00
2024-05-09T02:50:54.072Z,100.00
2024-05-09T02:53:20.849Z,100.00
2024-05-09T02:55:50.399Z,100.00
2024-05-09T02:58:17.218Z,100.00
2024-05-09T03:00:49.850Z,100.00
2024-05-09T03:03:17.072Z,100.00
2024-05-09T03:05:47.144Z,100.00
2024-05-09T03:08:14.247Z,100.00
2024-05-09T03:10:44.174Z,100.00
2024-05-09T03:13:14.158Z,100.00
2024-05-09T03:15:45.554Z,100.00
2024-05-09T03:18:15.223Z,100.00
2024-05-09T03:20:45.398Z,100.00
2024-05-09T03:23:12.537Z,100.00
2024-05-09T03:25:42.052Z,100.00
2024-05-09T03:28:08.808Z,100.00
2024-05-09T03:30:41.999Z,100.00
2024-05-09T03:33:10.764Z,100.00
2024-05-09T03:35:43.496Z,100.00
2024-05-09T03:38:13.049Z,100.00
2024-05-09T03:40:47.821Z,100.00
2024-05-09T03:43:15.274Z,100.00
2024-05-09T03:45:44.974Z,100.00
2024-05-09T03:48:12.659Z,100.00
2024-05-09T03:50:45.132Z,100.00
2024-05-09T03:53:13.567Z,100.00
2024-05-09T03:55:44.090Z,100.00
2024-05-09T03:58:12.764Z,100.00
2024-05-09T04:00:42.607Z,100.00
2024-05-09T04:03:11.802Z,100.00
2024-05-09T04:05:46.102Z,100.00
2024-05-09T04:08:14.236Z,100.00
2024-05-09T04:10:44.167Z,100.00
2024-05-09T04:13:11.218Z,100.00
2024-05-09T04:15:40.714Z,100.00
2024-05-09T04:18:07.733Z,100.00
2024-05-09T04:20:39.998Z,100.00
2024-05-09T04:23:12.352Z,100.00
2024-05-09T04:25:45.456Z,100.00
2024-05-09T04:28:15.750Z,100.00
2024-05-09T04:30:43.121Z,100.00
2024-05-09T04:33:14.300Z,100.00
2024-05-09T04:35:42.625Z,100.00
2024-05-09T04:38:15.717Z,100.00
2024-05-09T04:40:43.070Z,100.00
2024-05-09T04:43:18.823Z,100.00
2024-05-09T04:45:46.243Z,100.00
2024-05-09T04:48:16.596Z,100.00
2024-05-09T04:50:43.854Z,100.00
2024-05-09T04:53:18.678Z,100.00
2024-05-09T04:55:45.894Z,100.00
2024-05-09T04:58:15.306Z,100.00
2024-05-09T05:00:42.903Z,100.00
2024-05-09T05:03:15.845Z,100.00
2024-05-09T05:05:45.307Z,100.00
2024-05-09T05:08:19.855Z,100.00
2024-05-09T05:10:48.562Z,100.00
2024-05-09T05:13:20.388Z,100.00
2024-05-09T05:15:49.290Z,100.00
2024-05-09T05:18:19.375Z,100.00
2024-05-09T05:20:46.500Z,100.00
2024-05-09T05:23:21.174Z,100.00
2024-05-09T05:25:48.837Z,100.00
2024-05-09T05:28:19.196Z,100.00
2024-05-09T05:30:46.467Z,100.00
2024-05-09T05:33:18.138Z,100.00
2024-05-09T05:35:45.284Z,100.00
2024-05-09T05:38:14.750Z,100.00
2024-05-09T05:40:44.417Z,100.00
2024-05-09T05:43:19.780Z,100.00
2024-05-09T05:45:46.902Z,100.00
2024-05-09T05:48:17.947Z,100.00
2024-05-09T05:50:45.647Z,100.00
2024-05-09T05:53:15.602Z,100.00
2024-05-09T05:55:45.264Z,100.00
2024-05-09T05:58:15.180Z,100.00
2024-05-09T06:00:42.844Z,100.00
2024-05-09T06:03:14.461Z,100.00
2024-05-09T06:05:43.583Z,100.00
2024-05-09T06:08:13.499Z,100.00
2024-05-09T06:10:41.467Z,100.00
2024-05-09T06:13:15.665Z,100.00
2024-05-09T06:15:43.437Z,100.00
2024-05-09T06:18:13.728Z,100.00
2024-05-09T06:20:41.963Z,100.00
2024-05-09T06:23:13.000Z,100.00
2024-05-09T06:25:40.369Z,100.00
2024-05-09T06:28:09.749Z,100.00
2024-05-09T06:30:42.123Z,100.00
2024-05-09T06:33:15.826Z,100.00
2024-05-09T06:35:43.722Z,100.00
2024-05-09T06:38:13.427Z,100.00
2024-05-09T06:40:42.430Z,100.00
2024-05-09T06:43:14.042Z,100.00
2024-05-09T06:45:43.897Z,100.00
2024-05-09T06:48:13.971Z,98.57
2024-05-09T06:50:41.511Z,98.05
2024-05-09T06:53:11.256Z,95.99
2024-05-09T06:55:38.281Z,93.79
2024-05-09T06:58:08.984Z,93.46
2024-05-09T07:00:39.525Z,93.37
2024-05-09T07:03:16.936Z,90.77
2024-05-09T07:05:46.025Z,89.14
2024-05-09T07:08:16.325Z,82.34
2024-05-09T07:10:44.260Z,77.67
2024-05-09T07:13:15.745Z,79.25
2024-05-09T07:15:42.991Z,78.10
2024-05-09T07:18:19.950Z,74.13
2024-05-09T07:20:48.036Z,68.04
2024-05-09T07:23:18.606Z,66.83
2024-05-09T07:25:46.146Z,63.78
2024-05-09T07:28:34.521Z,66.21
2024-05-09T07:31:03.879Z,66.65
2024-05-09T07:33:33.404Z,65.43
2024-05-09T07:36:02.856Z,62.44
2024-05-09T07:38:29.757Z,63.24
2024-05-09T07:40:59.218Z,60.48
2024-05-09T07:43:27.905Z,57.21
2024-05-09T07:46:00.888Z,55.00
2024-05-09T07:53:52.170Z,52.90
2024-05-09T07:56:25.417Z,52.21
2024-05-09T07:58:53.043Z,51.66
2024-05-09T08:01:25.483Z,48.86
2024-05-09T08:03:55.324Z,50.64
2024-05-09T08:06:26.288Z,49.58
2024-05-09T08:08:53.161Z,51.17
2024-05-09T08:11:23.673Z,49.16
2024-05-09T08:13:50.506Z,52.50
2024-05-09T08:16:20.100Z,52.22
2024-05-09T08:18:48.664Z,53.55
2024-05-09T08:21:20.988Z,55.82
2024-05-09T08:23:47.770Z,53.99
2024-05-09T08:26:17.128Z,51.20
2024-05-09T08:28:43.915Z,55.46
2024-05-09T08:31:13.402Z,51.27
2024-05-09T08:33:44.193Z,51.17
2024-05-09T08:36:13.689Z,51.69
2024-05-09T08:38:43.071Z,50.46
2024-05-09T08:41:16.158Z,48.78
2024-05-09T08:43:44.481Z,48.87
2024-05-09T08:46:15.638Z,46.89
2024-05-09T08:48:45.629Z,49.29
2024-05-09T08:51:16.866Z,45.97
2024-05-09T08:53:46.435Z,46.28
2024-05-09T08:56:17.326Z,47.41
2024-05-09T08:58:45.355Z,48.48
2024-05-09T09:01:16.429Z,43.86
2024-05-09T09:03:44.808Z,42.46
2024-05-09T09:06:15.185Z,44.89
2024-05-09T09:08:42.386Z,40.96
2024-05-09T09:11:14.440Z,42.91
2024-05-09T09:13:41.300Z,42.27
2024-05-09T09:16:10.940Z,45.32
2024-05-09T09:18:37.914Z,42.98
2024-05-09T09:21:12.351Z,46.87
2024-05-09T09:23:39.162Z,41.91
2024-05-09T09:26:08.650Z,44.16
2024-05-09T09:28:40.514Z,46.11
2024-05-09T09:31:09.972Z,46.19
2024-05-09T09:33:42.031Z,43.24
2024-05-09T09:36:13.644Z,45.39
2024-05-09T09:38:41.496Z,46.89
2024-05-09T09:41:12.296Z,44.52
2024-05-09T09:43:42.391Z,46.35
2024-05-09T09:46:12.962Z,46.42
2024-05-09T09:48:40.642Z,42.61
2024-05-09T09:51:10.885Z,44.90
2024-05-09T09:53:38.716Z,42.57
2024-05-09T09:56:10.544Z,43.37
2024-05-09T09:58:42.208Z,42.94
2024-05-09T10:01:11.681Z,42.03
2024-05-09T10:03:38.903Z,41.66
2024-05-09T10:06:10.289Z,41.26
2024-05-09T10:08:37.740Z,39.68
2024-05-09T10:11:07.636Z,42.48
2024-05-09T10:13:34.911Z,41.07
2024-05-09T10:16:13.005Z,39.64
2024-05-09T10:18:40.835Z,42.57
2024-05-09T10:21:20.071Z,44.21
2024-05-09T10:23:57.464Z,40.94
2024-05-09T10:26:33.817Z,38.51
2024-05-09T10:29:03.483Z,40.56
2024-05-09T10:31:35.780Z,39.26
2024-05-09T10:34:02.997Z,42.25
2024-05-09T10:36:32.722Z,40.51
2024-05-09T10:38:59.679Z,40.77
2024-05-09T10:41:29.195Z,40.21
2024-05-09T10:43:55.988Z,40.59
2024-05-09T10:46:25.445Z,40.71
2024-05-09T10:48:54.980Z,41.05
2024-05-09T10:51:24.458Z,42.58
2024-05-09T10:53:52.372Z,42.11
2024-05-09T10:56:21.732Z,41.43
2024-05-09T10:58:51.352Z,39.63
2024-05-09T11:01:21.060Z,39.94
2024-05-09T11:03:48.748Z,38.09
2024-05-09T11:06:28.206Z,37.82
2024-05-09T11:08:57.107Z,41.15
2024-05-09T11:11:27.775Z,41.28
2024-05-09T11:13:54.600Z,35.63
2024-05-09T11:16:24.183Z,43.08
2024-05-09T11:18:55.989Z,38.18
2024-05-09T11:21:28.219Z,39.50
2024-05-09T11:23:55.309Z,39.91
2024-05-09T11:26:28.017Z,38.96
2024-05-09T11:28:54.837Z,38.64
2024-05-09T11:31:24.406Z,38.47
2024-05-09T11:33:54.458Z,40.21
2024-05-09T11:36:23.965Z,40.61
2024-05-09T11:38:53.470Z,40.59
2024-05-09T11:41:23.686Z,40.12
2024-05-09T11:43:50.482Z,38.23
2024-05-09T11:46:20.003Z,40.95
2024-05-09T11:48:47.026Z,39.68
2024-05-09T11:51:16.512Z,36.70
2024-05-09T11:53:43.262Z,40.20
2024-05-09T11:56:15.459Z,39.00
2024-05-09T11:58:42.242Z,39.21
2024-05-09T12:01:11.694Z,37.38
2024-05-09T12:03:38.660Z,35.49
2024-05-09T12:06:08.422Z,35.28
2024-05-09T12:08:35.250Z,35.29
2024-05-09T12:11:04.792Z,36.76
2024-05-09T12:13:34.315Z,38.57
2024-05-09T12:16:03.995Z,37.67
2024-05-09T12:18:31.425Z,38.08
2024-05-09T12:21:00.935Z,34.48
2024-05-09T12:23:27.759Z,38.80
2024-05-09T12:25:57.556Z,36.25
2024-05-09T12:28:26.608Z,35.21
2024-05-09T12:30:58.654Z,37.86
2024-05-09T12:33:25.515Z,38.29
2024-05-09T12:35:55.436Z,36.87
2024-05-09T12:38:22.196Z,35.08
2024-05-09T12:40:51.663Z,38.39
2024-05-09T12:43:19.084Z,38.30
2024-05-09T12:45:48.892Z,37.93
2024-05-09T12:48:18.642Z,36.70
2024-05-09T12:50:48.267Z,37.40
2024-05-09T12:53:15.107Z,37.55
2024-05-09T12:55:53.028Z,35.34
2024-05-09T12:58:24.396Z,38.22
2024-05-09T13:00:54.603Z,37.10
2024-05-09T13:03:24.255Z,37.25
2024-05-09T13:05:54.118Z,37.63
2024-05-09T13:08:21.312Z,37.26
2024-05-09T13:10:50.937Z,36.27
2024-05-09T13:13:17.800Z,35.37
2024-05-09T13:15:47.286Z,34.58
2024-05-09T13:18:14.193Z,38.51
2024-05-09T13:20:46.783Z,40.59
2024-05-09T13:23:13.705Z,34.98
2024-05-09T13:25:43.127Z,36.29
2024-05-09T13:28:10.091Z,34.16
2024-05-09T13:30:41.797Z,36.19
2024-05-09T13:33:09.676Z,34.24
2024-05-09T13:35:40.755Z,39.67
2024-05-09T13:38:13.795Z,37.82
2024-05-09T13:40:43.510Z,35.63
2024-05-09T13:43:10.326Z,40.21
2024-05-09T13:45:39.795Z,37.31
2024-05-09T13:48:09.549Z,35.20
2024-05-09T13:50:39.201Z,35.84
2024-05-09T13:53:07.610Z,37.74
2024-05-09T13:55:41.585Z,38.08
2024-05-09T13:58:09.598Z,37.88
2024-05-09T14:00:46.419Z,37.02
2024-05-09T14:03:17.129Z,36.69
2024-05-09T14:05:48.244Z,35.22
2024-05-09T14:08:15.714Z,35.76
2024-05-09T14:10:48.201Z,36.45
2024-05-09T14:13:15.809Z,35.51
2024-05-09T14:15:45.553Z,36.76
2024-05-09T14:18:14.174Z,36.48
2024-05-09T14:20:44.090Z,36.66
2024-05-09T14:23:11.059Z,36.58
2024-05-09T14:25:42.550Z,36.60
2024-05-09T14:28:13.667Z,35.51
2024-05-09T14:30:43.314Z,36.27
2024-05-09T14:33:11.220Z,38.16
2024-05-09T14:35:41.015Z,36.44
2024-05-09T14:38:08.954Z,35.30
2024-05-09T14:40:43.012Z,35.61
2024-05-09T14:43:15.081Z,36.60
2024-05-09T14:45:45.426Z,33.88
2024-05-09T14:48:14.647Z,35.10
2024-05-09T14:50:44.848Z,36.44
2024-05-09T14:53:12.886Z,36.60
2024-05-09T14:55:43.810Z,36.28
2024-05-09T14:58:13.777Z,35.67
2024-05-09T15:00:48.515Z,38.71
2024-05-09T15:03:18.395Z,34.11
2024-05-09T15:05:48.229Z,36.67
2024-05-09T15:08:17.283Z,37.19
2024-05-09T15:10:47.135Z,36.52
2024-05-09T15:13:17.386Z,37.71
2024-05-09T15:15:47.061Z,35.71
2024-05-09T15:18:14.373Z,37.02
2024-05-09T15:20:44.648Z,37.71
2024-05-09T15:23:11.715Z,36.96
2024-05-09T15:25:41.088Z,39.05
2024-05-09T15:28:08.367Z,36.71
2024-05-09T15:30:42.944Z,38.61
2024-05-09T15:33:12.371Z,36.93
2024-05-09T15:35:42.528Z,36.04
2024-05-09T15:38:09.737Z,38.36
2024-05-09T15:40:40.773Z,39.00
2024-05-09T15:43:10.638Z,36.57
2024-05-09T15:45:43.680Z,38.90
2024-05-09T15:48:11.227Z,35.80
2024-05-09T15:50:42.572Z,39.57
2024-05-09T15:53:11.361Z,42.15
2024-05-09T15:55:41.750Z,36.67
2024-05-09T15:58:09.228Z,36.01
2024-05-09T16:00:42.207Z,35.53
2024-05-09T16:03:14.502Z,38.66
2024-05-09T16:05:47.049Z,42.90
2024-05-09T16:08:15.274Z,39.40
2024-05-09T16:10:46.210Z,37.11
2024-05-09T16:13:14.673Z,39.17
2024-05-09T16:15:45.909Z,40.87
2024-05-09T16:18:15.797Z,41.16
2024-05-09T16:20:48.502Z,41.52
2024-05-09T16:23:17.144Z,39.28
2024-05-09T16:25:47.931Z,37.18
2024-05-09T16:28:15.291Z,38.19
2024-05-09T16:30:44.852Z,39.11
2024-05-09T16:33:12.131Z,38.56
2024-05-09T16:35:44.443Z,36.14
2024-05-09T16:38:11.299Z,35.68
2024-05-09T16:40:41.572Z,36.80
2024-05-09T16:43:09.746Z,32.44
2024-05-09T16:45:40.056Z,35.27
2024-05-09T16:48:08.214Z,32.44
2024-05-09T16:50:37.871Z,33.20
2024-05-09T16:53:07.648Z,30.90
2024-05-09T16:55:37.308Z,33.92
2024-05-09T16:58:05.566Z,36.29
2024-05-09T17:00:40.992Z,38.88
2024-05-09T17:03:11.619Z,39.87
2024-05-09T17:05:42.404Z,37.04
2024-05-09T17:08:12.648Z,35.35
2024-05-09T17:10:42.237Z,35.19
2024-05-09T17:13:11.759Z,40.69
2024-05-09T17:15:41.176Z,37.13
2024-05-09T17:18:08.638Z,39.26
2024-05-09T17:20:38.315Z,44.19
2024-05-09T17:23:12.381Z,39.70
2024-05-09T17:25:45.039Z,46.49
2024-05-09T17:28:12.475Z,42.32
2024-05-09T17:30:42.974Z,42.99
2024-05-09T17:33:11.271Z,47.80
2024-05-09T17:35:41.913Z,49.76
2024-05-09T17:38:09.314Z,54.93
2024-05-09T17:40:39.452Z,52.88
2024-05-09T17:43:10.645Z,57.40
2024-05-09T17:45:41.547Z,54.68
2024-05-09T17:48:09.676Z,55.71
2024-05-09T17:50:40.090Z,54.55
2024-05-09T17:53:08.469Z,57.71
2024-05-09T17:55:38.209Z,58.11
2024-05-09T17:58:05.951Z,55.95
2024-05-09T18:00:41.148Z,57.78
2024-05-09T18:03:11.096Z,58.72
2024-05-09T18:05:42.313Z,61.67
2024-05-09T18:08:09.950Z,62.56
2024-05-09T18:10:40.464Z,64.70
2024-05-09T18:13:08.310Z,65.87
2024-05-09T18:15:41.189Z,68.54
2024-05-09T18:18:09.104Z,70.22
2024-05-09T18:20:44.005Z,71.08
2024-05-09T18:23:14.345Z,71.34
2024-05-09T18:25:45.018Z,73.60
2024-05-09T18:28:11.918Z,74.21
2024-05-09T18:30:44.448Z,77.98
2024-05-09T18:33:11.965Z,78.03
2024-05-09T18:35:45.272Z,78.53
2024-05-09T18:38:12.788Z,80.23
2024-05-09T18:40:44.025Z,79.95
2024-05-09T18:43:16.014Z,80.86
2024-05-09T18:45:45.616Z,80.94
2024-05-09T18:48:15.929Z,82.91
2024-05-09T18:50:42.806Z,83.37
2024-05-09T18:53:13.875Z,85.60
2024-05-09T18:55:40.916Z,85.43
2024-05-09T18:58:10.477Z,84.98
2024-05-09T19:00:40.077Z,86.37
2024-05-09T19:03:15.377Z,86.02
2024-05-09T19:05:43.983Z,86.45
2024-05-09T19:08:15.075Z,86.14
2024-05-09T19:10:42.331Z,87.63
2024-05-09T19:13:13.676Z,89.18
2024-05-09T19:15:42.185Z,88.95
2024-05-09T19:18:15.748Z,90.71
2024-05-09T19:20:43.087Z,91.23
2024-05-09T19:23:12.908Z,90.30
2024-05-09T19:25:39.865Z,92.06
2024-05-09T19:28:09.664Z,92.63
2024-05-09T19:30:40.766Z,92.94
2024-05-09T19:33:13.513Z,93.17
2024-05-09T19:35:43.903Z,93.52
2024-05-09T19:38:13.873Z,93.83
2024-05-09T19:40:41.388Z,94.59
2024-05-09T19:43:11.395Z,94.26
2024-05-09T19:45:38.531Z,95.28
2024-05-09T19:48:08.989Z,95.46
2024-05-09T19:50:41.718Z,95.30
2024-05-09T19:53:16.786Z,94.60
2024-05-09T19:55:43.995Z,94.84
2024-05-09T19:58:13.741Z,94.11
2024-05-09T20:00:42.933Z,93.02
2024-05-09T20:03:14.836Z,93.14
2024-05-09T20:05:44.311Z,94.34
2024-05-09T20:08:16.568Z,94.26
2024-05-09T20:10:43.795Z,95.13
2024-05-09T20:13:13.640Z,95.62
2024-05-09T20:15:40.565Z,96.83
2024-05-09T20:18:10.198Z,96.83
2024-05-09T20:20:41.273Z,97.31
2024-05-09T20:23:16.341Z,97.10
2024-05-09T20:25:43.608Z,97.85
2024-05-09T20:28:13.284Z,97.52
2024-05-09T20:30:40.236Z,98.78
2024-05-09T20:33:10.228Z,98.40
2024-05-09T20:35:37.541Z,97.39
2024-05-09T20:38:07.255Z,98.19
2024-05-09T20:40:38.948Z,98.35
2024-05-09T20:43:10.800Z,99.22
2024-05-09T20:45:38.279Z,99.80
2024-05-09T20:48:09.322Z,99.80
2024-05-09T20:50:40.508Z,100.00
2024-05-09T20:53:12.877Z,100.00
2024-05-09T20:55:44.441Z,100.00
2024-05-09T20:58:14.488Z,100.00
2024-05-09T21:00:44.704Z,100.00
2024-05-09T21:03:17.009Z,100.00
2024-05-09T21:05:45.163Z,100.00
2024-05-09T21:08:14.695Z,100.00
2024-05-09T21:10:44.184Z,100.00
2024-05-09T21:13:13.868Z,100.00
2024-05-09T21:15:41.233Z,100.00
2024-05-09T21:18:11.133Z,100.00
2024-05-09T21:20:38.058Z,100.00
2024-05-09T21:23:07.888Z,100.00
2024-05-09T21:25:34.673Z,100.00
2024-05-09T21:28:06.945Z,100.00
2024-05-09T21:30:41.253Z,100.00
2024-05-09T21:33:14.025Z,100.00
2024-05-09T21:35:42.236Z,100.00
2024-05-09T21:38:13.315Z,99.71
2024-05-09T21:40:40.233Z,99.18
2024-05-09T21:43:12.519Z,97.49
2024-05-09T21:45:39.455Z,96.61
2024-05-09T21:48:10.167Z,97.05
2024-05-09T21:50:40.944Z,96.33
2024-05-09T21:53:12.640Z,96.18
2024-05-09T21:55:40.211Z,95.63
2024-05-09T21:58:12.289Z,95.08
2024-05-09T22:00:40.843Z,95.20
2024-05-09T22:03:12.052Z,95.17
2024-05-09T22:05:41.566Z,95.21
2024-05-09T22:08:11.617Z,95.27
2024-05-09T22:10:38.546Z,94.42
2024-05-09T22:13:08.573Z,94.20
2024-05-09T22:15:40.313Z,93.28
2024-05-09T22:18:11.672Z,92.34
2024-05-09T22:20:44.286Z,92.66
2024-05-09T22:23:15.194Z,93.54
2024-05-09T22:25:42.412Z,92.62
2024-05-09T22:28:12.177Z,92.83
2024-05-09T22:30:42.876Z,92.82
2024-05-09T22:33:12.868Z,91.34
2024-05-09T22:35:40.610Z,91.31
2024-05-09T22:38:10.409Z,91.05
2024-05-09T22:40:45.726Z,91.16
2024-05-09T22:43:24.393Z,92.06
2024-05-09T22:45:55.314Z,91.82
2024-05-09T22:48:26.109Z,91.95
2024-05-09T22:50:53.477Z,91.41
2024-05-09T22:53:24.181Z,92.26
2024-05-09T22:55:50.983Z,91.87
2024-05-09T22:58:20.726Z,91.60
2024-05-09T23:00:47.742Z,92.52
2024-05-09T23:03:21.519Z,92.41
2024-05-09T23:05:48.660Z,92.38
2024-05-09T23:08:18.041Z,92.02
2024-05-09T23:10:44.937Z,92.28
2024-05-09T23:13:14.741Z,92.22
2024-05-09T23:15:41.580Z,92.78
2024-05-09T23:18:11.214Z,92.92
2024-05-09T23:20:43.499Z,93.13
2024-05-09T23:23:11.603Z,93.49
2024-05-09T23:25:42.210Z,92.86
2024-05-09T23:28:09.553Z,93.94
2024-05-09T23:30:40.887Z,94.92
2024-05-09T23:33:09.759Z,95.00
2024-05-09T23:35:39.514Z,95.81
2024-05-09T23:38:08.920Z,96.92
2024-05-09T23:40:40.796Z,97.65
2024-05-09T23:43:09.314Z,98.35
2024-05-09T23:45:39.093Z,98.52
2024-05-09T23:48:07.589Z,99.13
2024-05-09T23:50:39.080Z,99.13
2024-05-09T23:53:10.668Z,98.21
2024-05-09T23:55:40.674Z,96.46
2024-05-09T23:58:07.904Z,94.92
